Flight Track Log - Related Links

Times and Time Zones

All times are in EDT time to prevent confusion due to time zone crossing. See the N860BA flight status page for this flight to view local times or setup timezone preferences in your user account.

Time Position Orientation Groundspeed Altitude Reporting Facility
EDT Latitude Longitude Course Direction KTS MPH feet Rate Location/Type
Sun 04:31:42 AM 35.0442 -106.5714 140° Southeast 164 189 6,000  Level Albuquerque Center
Sun 04:32:49 AM 35.0078 -106.5342 140° Southeast 191 220 8,000 1,937 Climbing Albuquerque Center
Sun 04:33:49 AM 34.9572 -106.5133 161° South 220 253 10,100 1,821 Climbing Albuquerque Center
Sun 04:35:14 AM 34.9883 -106.4247 67° East 245 282 12,400 1,685 Climbing Albuquerque Center
Sun 04:36:15 AM 35.0325 -106.3436 56° Northeast 284 327 14,200 1,983 Climbing Albuquerque Center
Sun 04:37:15 AM 35.0786 -106.2558 57° Northeast 305 351 16,400 2,050 Climbing Albuquerque Center
Sun 04:38:15 AM 35.1286 -106.1589 58° Northeast 312 359 18,300 1,700 Climbing Albuquerque Center
Sun 04:39:15 AM 35.1675 -106.0622 64° Northeast 316 364 19,800 1,450 Climbing Albuquerque Center
Sun 04:40:15 AM 35.2100 -105.9583 63° Northeast 334 384 21,200 1,350 Climbing Albuquerque Center
Sun 04:41:15 AM 35.2528 -105.8514 64° Northeast 348 400 22,500 1,100 Climbing Albuquerque Center
Sun 04:42:15 AM 35.2997 -105.7386 63° Northeast 366 421 23,400 843 Climbing Albuquerque Center
Sun 04:43:16 AM 35.3478 -105.6178 64° Northeast 388 447 24,200 893 Climbing Albuquerque Center
Sun 04:44:16 AM 35.4025 -105.4825 64° Northeast 405 466 25,200 900 Climbing Albuquerque Center
Sun 04:45:16 AM 35.4550 -105.3522 64° Northeast 417 480 26,000 850 Climbing Albuquerque Center
Sun 04:46:16 AM 35.5086 -105.2200 63° Northeast 425 489 26,900 850 Climbing Albuquerque Center
Sun 04:47:16 AM 35.5636 -105.0847 63° Northeast 434 499 27,700 850 Climbing Albuquerque Center
Sun 04:48:16 AM 35.6181 -104.9481 64° Northeast 438 504 28,600 850 Climbing Albuquerque Center
Sun 04:49:16 AM 35.6711 -104.8117 64° Northeast 438 504 29,400 793 Climbing Albuquerque Center
Sun 04:50:17 AM 35.7258 -104.6742 64° Northeast 440 506 30,200 793 Climbing Albuquerque Center
Sun 04:51:17 AM 35.7803 -104.5350 64° Northeast 443 510 31,000 650 Climbing Albuquerque Center
Sun 04:52:17 AM 35.8361 -104.3942 64° Northeast 448 516 31,500 500 Climbing Albuquerque Center
Sun 04:53:17 AM 35.8925 -104.2506 64° Northeast 454 522 32,000 450 Climbing Albuquerque Center
Sun 04:54:17 AM 35.9389 -104.1297 65° Northeast 460 529 32,400 450 Climbing Albuquerque Center
Sun 04:55:17 AM 35.9944 -103.9847 65° Northeast 461 531 32,900 500 Climbing Albuquerque Center
Sun 04:56:17 AM 36.0506 -103.8381 65° Northeast 466 536 33,400 496 Climbing Albuquerque Center
Sun 04:57:18 AM 36.1064 -103.6925 65° Northeast 464 534 33,900 446 Climbing Albuquerque Center
Sun 04:58:18 AM 36.1625 -103.5450 65° Northeast 467 537 34,300 450 Climbing Albuquerque Center
Sun 04:59:18 AM 36.2192 -103.3992 64° Northeast 467 537 34,800 500 Climbing Albuquerque Center
Sun 05:00:18 AM 36.2742 -103.2511 65° Northeast 467 537 35,300 500 Climbing Albuquerque Center
Sun 05:01:18 AM 36.3297 -103.1039 65° Northeast 468 539 35,800 450 Climbing Albuquerque Center
Sun 05:02:18 AM 36.3836 -102.9561 66° East 467 537 36,200 446 Climbing Albuquerque Center
Sun 05:03:19 AM 36.4419 -102.8028 65° Northeast 466 536 36,700 397 Climbing Albuquerque Center
Sun 05:04:19 AM 36.4961 -102.6572 65° Northeast 466 536 37,000 150 Climbing Albuquerque Center
Sun 05:05:19 AM 36.5503 -102.5094 65° Northeast 467 537 37,000  Level Albuquerque Center
Sun 05:06:19 AM 36.6039 -102.3597 66° East 472 543 37,000  Level Albuquerque Center
Sun 05:07:19 AM 36.6589 -102.2111 65° Northeast 472 543 37,000  Level Albuquerque Center
Sun 05:08:19 AM 36.7058 -102.0819 66° East 471 542 37,000  Level Albuquerque Center
Sun 05:09:19 AM 36.7658 -101.9150 66° East 472 543 37,000  Level Albuquerque Center
Sun 05:10:20 AM 36.8167 -101.7742 66° East 469 540 37,000  Level Albuquerque Center
Sun 05:11:20 AM 36.8669 -101.6314 66° East 469 540 37,000  Level Albuquerque Center
Sun 05:12:29 AM 36.9344 -101.4414 66° East 468 539 37,000  Level Kansas City Center
Sun 05:13:30 AM 36.9853 -101.3008 66° East 468 539 37,000  Level Kansas City Center
Sun 05:14:29 AM 37.0356 -101.1572 66° East 469 540 37,000  Level Kansas City Center
Sun 05:15:29 AM 37.0850 -101.0147 66° East 469 540 37,000  Level Kansas City Center
Sun 05:16:29 AM 37.1439 -100.8456 66° East 474 545 37,000  Level Kansas City Center
Sun 05:17:32 AM 37.1936 -100.7017 67° East 475 547 37,000  Level Kansas City Center
Sun 05:18:30 AM 37.2436 -100.5558 67° East 477 549 37,000  Level Kansas City Center
Sun 05:19:31 AM 37.3025 -100.3861 66° East 479 551 37,000  Level Kansas City Center
Sun 05:20:30 AM 37.3522 -100.2403 67° East 479 551 37,000  Level Kansas City Center
Sun 05:21:30 AM 37.4022 -100.0944 67° East 478 550 37,000  Level Kansas City Center
Sun 05:22:30 AM 37.4592 -99.9247 67° East 474 545 37,000  Level Kansas City Center
Sun 05:23:31 AM 37.5086 -99.7786 67° East 475 547 37,000  Level Kansas City Center
Sun 05:24:32 AM 37.5578 -99.6325 67° East 475 547 37,000  Level Kansas City Center
Sun 05:25:31 AM 37.6158 -99.4600 67° East 478 550 37,000  Level Kansas City Center
Sun 05:26:31 AM 37.6586 -99.3283 68° East 474 545 37,000  Level Kansas City Center
Sun 05:27:31 AM 37.7103 -99.1753 67° East 473 544 37,000  Level Kansas City Center
Sun 05:28:32 AM 37.7597 -99.0214 68° East 473 544 37,000  Level Kansas City Center
Sun 05:29:33 AM 37.8094 -98.8681 68° East 472 543 37,000  Level Kansas City Center
Sun 05:30:32 AM 37.8589 -98.7131 68° East 474 545 37,000  Level Kansas City Center
Sun 05:31:32 AM 37.9114 -98.5567 67° East 472 543 37,000  Level Kansas City Center
Sun 05:32:32 AM 37.9603 -98.4069 67° East 474 545 37,000  Level Kansas City Center
Sun 05:33:32 AM 38.0097 -98.2519 68° East 472 543 37,000 99 Level Kansas City Center
Sun 05:34:33 AM 38.0611 -98.0908 68° East 467 537 37,200 248 Climbing Kansas City Center
Sun 05:35:33 AM 38.1094 -97.9333 69° East 472 543 37,500 300 Climbing Kansas City Center
Sun 05:36:33 AM 38.1572 -97.7783 69° East 468 539 37,800 300 Climbing Kansas City Center
Sun 05:37:33 AM 38.2064 -97.6233 68° East 474 545 38,100 300 Climbing Kansas City Center
Sun 05:38:33 AM 38.2542 -97.4683 69° East 470 541 38,400 300 Climbing Kansas City Center
Sun 05:39:33 AM 38.3019 -97.3142 68° East 468 539 38,700 248 Climbing Kansas City Center
Sun 05:40:34 AM 38.3489 -97.1600 69° East 468 539 38,900 149 Climbing Kansas City Center
Sun 05:41:34 AM 38.3964 -97.0061 68° East 467 537 39,000 50 Climbing Kansas City Center
Sun 05:42:34 AM 38.4419 -96.8528 69° East 464 534 39,000  Level Kansas City Center
Sun 05:43:34 AM 38.4844 -96.7114 69° East 460 529 39,000  Level Kansas City Center
Sun 05:44:34 AM 38.5356 -96.5392 69° East 464 534 39,000  Level Kansas City Center
Sun 05:45:34 AM 38.5797 -96.3925 69° East 464 534 39,000  Level Kansas City Center
Sun 05:46:34 AM 38.6236 -96.2447 69° East 464 534 39,000  Level Kansas City Center
Sun 05:47:35 AM 38.6675 -96.0964 69° East 466 536 39,000  Level Kansas City Center
Sun 05:48:36 AM 38.7183 -95.9236 69° East 466 536 39,000  Level Kansas City Center
Sun 05:49:36 AM 38.7614 -95.7769 69° East 462 532 39,000  Level Kansas City Center
Sun 05:50:36 AM 38.8053 -95.6292 69° East 464 534 39,000  Level Kansas City Center
Sun 05:51:37 AM 38.8531 -95.4569 70° East 461 531 39,000  Level Kansas City Center
Sun 05:52:37 AM 38.8956 -95.3083 70° East 466 536 39,000  Level Kansas City Center
Sun 05:53:37 AM 38.9383 -95.1575 70° East 465 535 39,000  Level Kansas City Center
Sun 05:54:36 AM 38.9861 -94.9875 70° East 465 535 39,000  Level Kansas City Center
Sun 05:55:37 AM 39.0272 -94.8397 70° East 464 534 39,000  Level Kansas City Center
Sun 05:56:36 AM 39.0694 -94.6900 70° East 466 536 39,000  Level Kansas City Center
Sun 05:57:36 AM 39.1114 -94.5394 70° East 469 540 39,000  Level Kansas City Center
Sun 05:58:36 AM 39.1617 -94.3658 69° East 466 536 39,000  Level Kansas City Center
Sun 05:59:37 AM 39.2028 -94.2158 70° East 464 534 39,000  Level Kansas City Center
Sun 06:00:36 AM 39.2436 -94.0656 71° East 464 534 39,000  Level Kansas City Center
Sun 06:01:36 AM 39.2903 -93.8917 71° East 460 529 39,000  Level Kansas City Center
Sun 06:02:36 AM 39.3331 -93.7342 71° East 457 526 39,000  Level Kansas City Center
Sun 06:03:39 AM 39.3744 -93.5864 70° East 454 522 39,000  Level Kansas City Center
Sun 06:04:37 AM 39.4144 -93.4358 71° East 449 517 39,000  Level Kansas City Center
Sun 06:05:37 AM 39.4539 -93.2853 71° East 447 514 39,000  Level Kansas City Center
Sun 06:06:37 AM 39.4931 -93.1369 71° East 443 510 39,000  Level Kansas City Center
Sun 06:07:39 AM 39.5319 -92.9864 71° East 446 513 39,000  Level Kansas City Center
Sun 06:08:40 AM 39.5700 -92.8364 72° East 445 512 39,000  Level Kansas City Center
Sun 06:09:37 AM 39.6086 -92.6861 72° East 443 510 39,000  Level Kansas City Center
Sun 06:10:37 AM 39.6467 -92.5381 71° East 442 509 39,000  Level Kansas City Center
Sun 06:11:38 AM 39.6856 -92.3889 71° East 443 510 39,000  Level Kansas City Center
Sun 06:12:39 AM 39.7228 -92.2389 72° East 442 509 39,000  Level Kansas City Center
Sun 06:13:38 AM 39.7611 -92.0892 72° East 443 510 39,000  Level Kansas City Center
Sun 06:14:38 AM 39.7992 -91.9394 72° East 444 511 39,000  Level Kansas City Center
Sun 06:15:40 AM 39.8364 -91.7886 72° East 444 511 39,000  Level Kansas City Center
Sun 06:16:38 AM 39.8744 -91.6367 72° East 445 512 39,000  Level Kansas City Center
Sun 06:17:38 AM 39.9119 -91.4844 72° East 446 513 39,000  Level Kansas City Center
Sun 06:18:38 AM 39.9489 -91.3336 72° East 444 511 39,000  Level Kansas City Center
Sun 06:19:41 AM 39.9911 -91.1517 73° East 444 511 39,000  Level Kansas City Center
Sun 06:20:38 AM 40.0281 -90.9981 73° East 447 514 39,000  Level Kansas City Center
Sun 06:21:39 AM 40.0631 -90.8522 73° East 445 512 39,000  Level Kansas City Center
Sun 06:22:39 AM 40.0989 -90.6981 73° East 445 512 39,000  Level Kansas City Center
Sun 06:23:41 AM 40.1375 -90.5472 71° East 441 507 39,000  Level Kansas City Center
Sun 06:24:40 AM 40.1733 -90.3939 73° East 441 507 39,000  Level Kansas City Center
Sun 06:25:12 AM 40.1939 -90.3006 74° East 442 509 39,000  Level Chicago Center
Sun 06:26:12 AM 40.2286 -90.1467 73° East 445 512 39,000  Level Chicago Center
Sun 06:27:13 AM 40.2647 -89.9928 73° East 444 511 39,000  Level Chicago Center
Sun 06:28:13 AM 40.2992 -89.8383 74° East 446 513 39,000  Level Chicago Center
Sun 06:29:13 AM 40.3336 -89.6844 74° East 445 512 39,000  Level Chicago Center
Sun 06:30:13 AM 40.3697 -89.5306 73° East 447 514 39,000  Level Chicago Center
Sun 06:31:14 AM 40.4042 -89.3756 74° East 447 514 39,000  Level Chicago Center
Sun 06:32:14 AM 40.4381 -89.2225 74° East 442 509 39,000  Level Chicago Center
Sun 06:33:14 AM 40.4722 -89.0656 74° East 447 514 39,000  Level Chicago Center
Sun 06:34:14 AM 40.5069 -88.9111 73° East 444 511 39,000  Level Chicago Center
Sun 06:35:14 AM 40.5403 -88.7625 74° East 439 505 39,000  Level Chicago Center
Sun 06:36:15 AM 40.5733 -88.6056 74° East 448 516 39,000  Level Chicago Center
Sun 06:37:15 AM 40.6072 -88.4506 74° East 447 514 39,000  Level Chicago Center
Sun 06:38:15 AM 40.6411 -88.3000 73° East 439 505 39,000  Level Chicago Center
Sun 06:39:15 AM 40.6800 -88.1119 75° East 446 513 39,000  Level Chicago Center
Sun 06:40:16 AM 40.7136 -87.9600 74° East 439 505 39,000  Level Chicago Center
Sun 06:41:16 AM 40.7456 -87.8044 75° East 443 510 39,000  Level Chicago Center
Sun 06:42:16 AM 40.7786 -87.6489 74° East 445 512 39,000  Level Chicago Center
Sun 06:43:16 AM 40.8106 -87.4919 75° East 447 514 39,000  Level Chicago Center
Sun 06:44:17 AM 40.8425 -87.3364 75° East 446 513 39,000  Level Chicago Center
Sun 06:45:17 AM 40.8747 -87.1792 75° East 447 514 39,000  Level Chicago Center
Sun 06:46:17 AM 40.9069 -87.0214 75° East 448 516 39,000  Level Chicago Center
Sun 06:47:17 AM 40.9375 -86.8647 75° East 446 513 39,000  Level Chicago Center
Sun 06:48:18 AM 40.9686 -86.7125 75° East 443 510 39,000  Level Chicago Center
Sun 06:49:18 AM 40.9992 -86.5556 75° East 443 510 39,000  Level Chicago Center
Sun 06:50:18 AM 41.0306 -86.3972 75° East 446 513 39,000  Level Chicago Center
Sun 06:51:18 AM 41.0606 -86.2394 76° East 444 511 39,000  Level Chicago Center
Sun 06:52:19 AM 41.0917 -86.0828 75° East 444 511 39,000  Level Chicago Center
Sun 06:53:19 AM 41.1206 -85.9231 76° East 446 513 39,000  Level Chicago Center
Sun 06:54:19 AM 41.1497 -85.7653 76° East 446 513 39,000  Level Chicago Center
Sun 06:55:19 AM 41.1792 -85.6056 76° East 448 516 39,000  Level Chicago Center
Sun 06:56:20 AM 41.2078 -85.4497 76° East 443 510 39,000  Level Chicago Center
Sun 06:57:20 AM 41.2353 -85.2939 77° East 440 506 39,000  Level Chicago Center
Sun 06:58:21 AM 41.2703 -85.1058 76° East 441 507 39,000  Level Chicago Center
Sun 06:59:23 AM 41.2989 -84.9500 76° East 440 506 39,000  Level Chicago Center
Sun 07:00:23 AM 41.3275 -84.7947 76° East 437 503 39,000  Level Chicago Center
Sun 07:01:24 AM 41.3544 -84.6394 77° East 434 499 39,000  Level Chicago Center
Sun 07:02:24 AM 41.3825 -84.4842 76° East 434 499 39,000  Level Chicago Center
Sun 07:03:24 AM 41.4094 -84.3314 77° East 430 495 39,000  Level Chicago Center
Sun 07:04:25 AM 41.4281 -84.1744 81° East 431 496 39,000  Level Chicago Center
Sun 07:05:26 AM 41.4425 -84.0100 83° East 427 491 39,000  Level Cleveland Center
Sun 07:06:27 AM 41.4564 -83.8494 83° East 437 503 39,000  Level Cleveland Center
Sun 07:07:28 AM 41.4706 -83.6925 83° East 432 497 39,000  Level Cleveland Center
Sun 07:08:29 AM 41.4858 -83.5367 82° East 429 494 39,000  Level Cleveland Center
Sun 07:09:30 AM 41.5014 -83.3794 82° East 431 496 39,000  Level Cleveland Center
Sun 07:10:31 AM 41.5147 -83.2219 83° East 430 495 39,000  Level Cleveland Center
Sun 07:11:32 AM 41.5306 -83.0417 83° East 430 495 39,000  Level Cleveland Center
Sun 07:12:33 AM 41.5453 -82.8842 83° East 427 491 39,000  Level Cleveland Center
Sun 07:13:34 AM 41.5589 -82.7264 83° East 424 488 39,000  Level Cleveland Center
Sun 07:14:35 AM 41.5711 -82.5681 84° East 424 488 39,000  Level Cleveland Center
Sun 07:16:37 AM 41.5975 -82.2500 84° East 425 489 39,000  Level Cleveland Center
Sun 07:17:38 AM 41.6103 -82.0889 84° East 430 495 39,000  Level Cleveland Center
Sun 07:18:39 AM 41.6231 -81.9272 84° East 433 498 39,000  Level Cleveland Center
Sun 07:19:40 AM 41.6358 -81.7658 84° East 431 496 39,000  Level Cleveland Center
Sun 07:20:41 AM 41.6478 -81.6019 84° East 434 499 39,000  Level Cleveland Center
Sun 07:21:41 AM 41.6594 -81.4389 84° East 434 499 39,000  Level Cleveland Center
Sun 07:22:42 AM 41.6706 -81.2775 85° East 431 496 39,000  Level Cleveland Center
Sun 07:23:43 AM 41.6819 -81.1153 85° East 433 498 39,000  Level Cleveland Center
Sun 07:24:44 AM 41.6933 -80.9558 84° East 429 494 39,000  Level Cleveland Center
Sun 07:25:45 AM 41.7050 -80.7950 84° East 430 495 39,000  Level Cleveland Center
Sun 07:26:46 AM 41.7156 -80.6356 85° East 428 493 39,000  Level Cleveland Center
Sun 07:27:47 AM 41.7258 -80.4750 85° East 430 495 39,000  Level Cleveland Center
Sun 07:28:48 AM 41.7356 -80.3144 85° East 430 495 39,000  Level Cleveland Center
Sun 07:29:49 AM 41.7469 -80.1533 85° East 430 495 39,000  Level Cleveland Center
Sun 07:30:50 AM 41.7561 -79.9947 86° East 428 493 39,000  Level Cleveland Center
Sun 07:31:51 AM 41.7664 -79.8350 85° East 427 491 39,000  Level Cleveland Center
Sun 07:32:52 AM 41.7756 -79.6744 86° East 428 493 39,000  Level Cleveland Center
Sun 07:33:53 AM 41.7836 -79.5289 86° East 423 487 39,000  Level Cleveland Center
Sun 07:34:54 AM 41.7947 -79.3408 85° East 424 488 39,000  Level Cleveland Center
Sun 07:35:54 AM 41.8011 -79.1989 86° East 426 490 39,000  Level Cleveland Center
Sun 07:36:55 AM 41.8094 -79.0431 86° East 423 487 39,000  Level Cleveland Center
Sun 07:37:56 AM 41.8192 -78.8714 86° East 419 482 39,000  Level Cleveland Center
Sun 07:38:57 AM 41.8264 -78.7164 86° East 417 480 39,000 -49 Level Cleveland Center
Sun 07:39:58 AM 41.8344 -78.5625 86° East 416 479 38,900 -590 Descending Cleveland Center
Sun 07:40:59 AM 41.8419 -78.4092 86° East 415 478 37,800 -1,033 Descending Cleveland Center
Sun 07:42:00 AM 41.8489 -78.2506 87° East 424 488 36,800 -992 Descending Cleveland Center
Sun 07:43:00 AM 41.8556 -78.0906 87° East 429 494 35,800 -893 Descending Cleveland Center
Sun 07:44:01 AM 41.8625 -77.9269 87° East 438 504 35,000 -393 Descending Cleveland Center
Sun 07:45:02 AM 41.8422 -77.7631 99° East 451 519 35,000  Level Cleveland Center
Sun 07:46:03 AM 41.7983 -77.5956 109° East 472 543 35,000  Level Cleveland Center
Sun 07:47:04 AM 41.7511 -77.4214 110° East 471 542 35,000  Level Cleveland Center
Sun 07:48:05 AM 41.7075 -77.2567 109° East 472 543 35,000  Level Cleveland Center
Sun 07:49:06 AM 41.6636 -77.0936 110° East 470 541 35,000 -344 Level Cleveland Center
Sun 07:50:07 AM 41.6189 -76.9317 110° East 469 540 34,300 -1,574 Descending Cleveland Center
Sun 07:51:08 AM 41.5689 -76.7436 110° East 472 543 31,800 -2,361 Descending Cleveland Center
Sun 07:52:09 AM 41.5214 -76.5747 111° Southeast 485 558 29,500 -2,311 Descending Cleveland Center
Sun 07:53:10 AM 41.4758 -76.4108 110° East 496 571 27,100 -2,459 Descending Cleveland Center
Sun 07:54:11 AM 41.4283 -76.2378 110° East 500 575 24,500 -2,702 Descending Cleveland Center
Sun 07:55:21 AM 41.3642 -76.0092 110° East 507 583 21,200 -2,723 Descending New York Center
Sun 07:56:21 AM 41.3153 -75.8425 111° Southeast 489 563 18,600 -2,300 Descending New York Center
Sun 07:57:21 AM 41.2697 -75.6844 111° Southeast 476 548 16,600 -2,350 Descending New York Center
Sun 07:58:21 AM 41.2236 -75.5375 113° Southeast 447 514 13,900 -1,800 Descending New York Center
Sun 07:59:21 AM 41.1750 -75.3992 115° Southeast 421 484 13,000 -900 Descending New York Center
Sun 08:00:21 AM 41.1414 -75.2978 114° Southeast 366 421 12,100 -1,550 Descending New York Center
Sun 08:01:21 AM 41.1061 -75.1853 113° Southeast 309 356 9,900 -2,050 Descending New York Center
Sun 08:02:21 AM 41.0722 -75.0922 116° Southeast 284 327 8,000 -1,500 Descending New York Center
Sun 08:03:21 AM 41.0422 -74.9994 113° Southeast 277 319 6,900 -850 Descending New York Center
Sun 08:04:21 AM 41.0139 -74.9178 115° Southeast 277 319 6,300 -500 Descending New York Center
Sun 08:05:21 AM 41.0111 -74.8133 92° East 277 319 5,900 -750 Descending New York Center
Sun 08:06:21 AM 41.0128 -74.7033 89° East 272 313 4,800 -1,050 Descending New York Center
Sun 08:07:21 AM 41.0161 -74.6044 87° East 272 313 3,800 -950 Descending New York Center
Sun 08:08:21 AM 41.0192 -74.5058 88° East 272 313 2,900 -400 Descending New York Center
Sun 08:09:21 AM 41.0197 -74.4206 89° East 252 290 3,000 50 Climbing New York Center
Sun 08:10:21 AM 41.0225 -74.3300 88° East 234 269 3,000 -419 Level New York Center
Sun 08:11:30 AM 41.0333 -74.2167 83° East 249 287 2,100 -419 Descending New York TRACON
Sun 08:12:30 AM 41.0000 -74.1500 124° Southeast 212 244 2,100  Level New York TRACON
Sun 08:13:30 AM 40.9833 -74.0833 108° East 191 220 2,100 -100 Level New York TRACON
Sun 08:14:30 AM 40.9333 -74.0500 153° Southeast 155 178 1,900 -474 Descending New York TRACON
Sun 08:15:24 AM 40.9000 -74.0500 180° South 133 153 1,200 -737 Descending New York TRACON
Sun 08:16:24 AM 40.8667 -74.0500 180° South 125 144 500 -700 Descending New York TRACON

Login

Don't have an account? Register now (free) for customized features, flight alerts, and more!